createdAt,value
2023-07-25T00:00:48.179Z,3.72
2023-07-25T00:03:15.876Z,3.60
2023-07-25T00:05:43.618Z,3.10
2023-07-25T00:08:11.473Z,3.03
2023-07-25T00:10:39.152Z,3.20
2023-07-25T00:13:06.836Z,2.90
2023-07-25T00:15:34.574Z,3.60
2023-07-25T00:18:02.351Z,3.95
2023-07-25T00:20:30.111Z,3.78
2023-07-25T00:22:57.948Z,3.55
2023-07-25T00:25:26.020Z,3.97
2023-07-25T00:27:54.037Z,3.45
2023-07-25T00:30:21.789Z,3.50
2023-07-25T00:32:49.573Z,3.75
2023-07-25T00:35:17.470Z,3.42
2023-07-25T00:37:45.222Z,3.50
2023-07-25T00:40:13.882Z,3.78
2023-07-25T00:42:41.766Z,3.42
2023-07-25T00:45:10.090Z,3.60
2023-07-25T00:47:37.878Z,4.03
2023-07-25T00:50:06.061Z,3.63
2023-07-25T00:52:33.963Z,3.35
2023-07-25T00:55:01.899Z,3.58
2023-07-25T00:57:32.052Z,3.70
2023-07-25T00:59:59.835Z,3.88
2023-07-25T01:02:27.772Z,3.97
2023-07-25T01:04:55.623Z,3.45
2023-07-25T01:07:23.486Z,3.63
2023-07-25T01:09:51.198Z,3.50
2023-07-25T01:12:18.912Z,3.30
2023-07-25T01:14:46.734Z,3.47
2023-07-25T01:17:18.780Z,3.40
2023-07-25T01:19:50.069Z,3.65
2023-07-25T01:22:17.876Z,3.60
2023-07-25T01:24:47.822Z,3.88
2023-07-25T01:27:16.403Z,3.42
2023-07-25T01:29:44.524Z,3.25
2023-07-25T01:32:12.557Z,3.30
2023-07-25T01:34:40.738Z,3.85
2023-07-25T01:37:08.966Z,3.58
2023-07-25T01:39:36.841Z,3.75
2023-07-25T01:42:04.907Z,3.03
2023-07-25T01:44:32.692Z,3.80
2023-07-25T01:47:00.615Z,3.55
2023-07-25T01:49:28.346Z,3.50
2023-07-25T01:51:56.039Z,3.35
2023-07-25T01:54:24.283Z,3.85
2023-07-25T01:56:52.139Z,3.72
2023-07-25T01:59:20.963Z,4.18
2023-07-25T02:01:48.837Z,3.70
2023-07-25T02:04:16.580Z,4.05
2023-07-25T02:06:44.348Z,3.85
2023-07-25T02:09:12.099Z,3.92
2023-07-25T02:11:39.831Z,3.88
2023-07-25T02:14:07.585Z,3.67
2023-07-25T02:16:37.978Z,4.10
2023-07-25T02:19:05.928Z,3.15
2023-07-25T02:21:34.225Z,3.63
2023-07-25T02:24:02.118Z,3.53
2023-07-25T02:26:29.855Z,4.15
2023-07-25T02:28:58.259Z,3.80
2023-07-25T02:31:26.057Z,4.10
2023-07-25T02:33:53.780Z,3.47
2023-07-25T02:36:21.500Z,4.10
2023-07-25T02:38:49.424Z,3.67
2023-07-25T02:41:18.294Z,3.42
2023-07-25T02:43:46.808Z,3.90
2023-07-25T02:46:14.694Z,4.60
2023-07-25T02:48:42.451Z,4.13
2023-07-25T02:51:11.170Z,4.00
2023-07-25T02:53:38.932Z,3.63
2023-07-25T02:56:06.626Z,3.70
2023-07-25T02:58:34.381Z,4.40
2023-07-25T03:01:02.183Z,3.80
2023-07-25T03:03:30.048Z,4.05
2023-07-25T03:05:58.538Z,4.40
2023-07-25T03:08:26.300Z,4.50
2023-07-25T03:10:54.059Z,4.35
2023-07-25T03:13:21.877Z,3.60
2023-07-25T03:15:49.649Z,4.97
2023-07-25T03:18:17.396Z,4.50
2023-07-25T03:20:45.146Z,4.72
2023-07-25T03:23:12.850Z,4.60
2023-07-25T03:25:40.693Z,4.57
2023-07-25T03:28:08.686Z,4.47
2023-07-25T03:30:36.860Z,4.35
2023-07-25T03:33:04.796Z,4.13
2023-07-25T03:35:32.588Z,4.30
2023-07-25T03:38:01.467Z,4.57
2023-07-25T03:40:29.537Z,3.90
2023-07-25T03:42:57.281Z,4.40
2023-07-25T03:45:25.178Z,4.80
2023-07-25T03:47:53.739Z,4.85
2023-07-25T03:50:21.657Z,4.60
2023-07-25T03:52:49.399Z,4.60
2023-07-25T03:55:17.284Z,4.75
2023-07-25T03:57:45.304Z,4.30
2023-07-25T04:00:13.758Z,4.40
2023-07-25T04:02:41.528Z,3.88
2023-07-25T04:05:09.489Z,4.80
2023-07-25T04:07:37.251Z,4.00
2023-07-25T04:10:05.650Z,4.00
2023-07-25T04:12:33.448Z,4.60
2023-07-25T04:15:01.180Z,3.78
2023-07-25T04:17:29.007Z,3.80
2023-07-25T04:19:56.804Z,3.42
2023-07-25T04:22:24.570Z,3.50
2023-07-25T04:24:52.282Z,4.50
2023-07-25T04:27:20.004Z,4.63
2023-07-25T04:29:47.759Z,4.68
2023-07-25T04:32:15.713Z,5.30
2023-07-25T04:34:43.492Z,4.85
2023-07-25T04:37:11.331Z,4.05
2023-07-25T04:39:39.132Z,4.65
2023-07-25T04:42:07.488Z,5.28
2023-07-25T04:44:35.286Z,4.13
2023-07-25T04:47:03.227Z,4.60
2023-07-25T04:49:31.010Z,4.75
2023-07-25T04:51:58.707Z,5.22
2023-07-25T04:54:26.421Z,4.28
2023-07-25T04:56:54.179Z,4.68
2023-07-25T04:59:21.901Z,4.80
2023-07-25T05:01:49.726Z,4.28
2023-07-25T05:04:17.481Z,4.88
2023-07-25T05:06:45.323Z,4.65
2023-07-25T05:09:13.813Z,6.03
2023-07-25T05:11:41.593Z,5.38
2023-07-25T05:14:09.303Z,5.53
2023-07-25T05:16:37.010Z,6.25
2023-07-25T05:19:04.760Z,5.90
2023-07-25T05:21:32.690Z,5.95
2023-07-25T05:24:00.731Z,5.95
2023-07-25T05:26:28.571Z,6.68
2023-07-25T05:28:57.710Z,5.70
2023-07-25T05:31:25.746Z,6.40
2023-07-25T05:33:53.474Z,6.55
2023-07-25T05:36:21.191Z,6.43
2023-07-25T05:38:48.899Z,5.55
2023-07-25T05:41:16.688Z,6.23
2023-07-25T05:43:44.659Z,5.70
2023-07-25T05:46:14.058Z,5.85
2023-07-25T05:48:41.832Z,5.72
2023-07-25T05:51:10.974Z,5.90
2023-07-25T05:53:38.703Z,5.50
2023-07-25T05:56:06.416Z,5.25
2023-07-25T05:58:34.132Z,4.70
2023-07-25T06:01:02.088Z,4.57
2023-07-25T06:03:29.895Z,4.85
2023-07-25T06:05:57.627Z,4.43
2023-07-25T06:08:25.335Z,4.65
2023-07-25T06:10:53.067Z,4.50
2023-07-25T06:13:22.076Z,4.53
2023-07-25T06:15:50.638Z,4.75
2023-07-25T06:18:18.436Z,4.90
2023-07-25T06:20:49.204Z,5.13
2023-07-25T06:23:17.026Z,4.32
2023-07-25T06:25:44.791Z,5.00
2023-07-25T06:28:16.349Z,3.92
2023-07-25T06:30:44.713Z,4.78
2023-07-25T06:33:15.108Z,4.60
2023-07-25T06:35:42.860Z,5.15
2023-07-25T06:38:10.760Z,5.13
2023-07-25T06:40:38.503Z,5.18
2023-07-25T06:43:06.374Z,4.90
2023-07-25T06:45:34.211Z,4.82
2023-07-25T06:48:03.035Z,4.93
2023-07-25T06:50:33.737Z,4.70
2023-07-25T06:53:01.577Z,4.38
2023-07-25T06:55:29.353Z,4.47
2023-07-25T06:57:57.120Z,4.20
2023-07-25T07:00:24.876Z,4.43
2023-07-25T07:02:52.739Z,3.80
2023-07-25T07:05:29.167Z,4.20
2023-07-25T07:07:58.269Z,4.07
2023-07-25T07:10:26.018Z,3.67
2023-07-25T07:12:54.977Z,3.95
2023-07-25T07:15:25.362Z,3.65
2023-07-25T07:17:54.057Z,4.28
2023-07-25T07:20:22.502Z,4.18
2023-07-25T07:22:50.448Z,3.63
2023-07-25T07:25:18.243Z,3.88
2023-07-25T07:27:45.966Z,3.72
2023-07-25T07:30:13.814Z,3.28
2023-07-25T07:32:41.547Z,3.45
2023-07-25T07:35:09.507Z,2.92
2023-07-25T07:37:38.353Z,3.10
2023-07-25T07:40:06.949Z,3.05
2023-07-25T07:42:34.691Z,3.00
2023-07-25T07:45:02.433Z,3.20
2023-07-25T07:47:30.219Z,3.00
2023-07-25T07:49:58.012Z,3.45
2023-07-25T07:52:37.362Z,3.10
2023-07-25T07:55:11.693Z,3.05
2023-07-25T07:57:43.669Z,2.72
2023-07-25T08:00:13.023Z,2.63
2023-07-25T08:02:41.080Z,2.40
2023-07-25T08:05:09.239Z,2.40
2023-07-25T08:07:37.232Z,2.92
2023-07-25T08:10:05.506Z,2.55
2023-07-25T08:12:33.841Z,2.85
2023-07-25T08:15:01.929Z,2.47
2023-07-25T08:17:30.084Z,2.55
2023-07-25T08:19:57.882Z,2.35
2023-07-25T08:22:25.749Z,2.70
2023-07-25T08:24:55.171Z,2.70
2023-07-25T08:27:23.037Z,2.60
2023-07-25T08:29:50.855Z,2.30
2023-07-25T08:32:18.983Z,2.47
2023-07-25T08:34:46.849Z,2.83
2023-07-25T08:37:14.595Z,2.22
2023-07-25T08:39:42.377Z,2.40
2023-07-25T08:42:12.458Z,2.33
2023-07-25T08:44:41.429Z,2.40
2023-07-25T08:47:19.209Z,2.72
2023-07-25T08:49:49.067Z,2.70
2023-07-25T08:52:19.207Z,2.88
2023-07-25T08:54:49.612Z,2.90
2023-07-25T08:57:19.874Z,2.28
2023-07-25T08:59:51.288Z,3.20
2023-07-25T09:02:19.461Z,2.60
2023-07-25T09:04:48.356Z,2.20
2023-07-25T09:07:16.208Z,2.80
2023-07-25T09:09:43.934Z,2.60
2023-07-25T09:12:11.952Z,2.85
2023-07-25T09:14:40.874Z,2.33
2023-07-25T09:17:08.874Z,2.33
2023-07-25T09:19:36.616Z,2.13
2023-07-25T09:22:04.534Z,2.30
2023-07-25T09:24:40.202Z,2.67
2023-07-25T09:27:18.309Z,2.55
2023-07-25T09:29:47.794Z,2.50
2023-07-25T09:32:25.296Z,2.75
2023-07-25T09:35:00.885Z,2.70
2023-07-25T09:37:30.240Z,2.50
2023-07-25T09:39:59.382Z,2.38
2023-07-25T09:42:29.020Z,2.70
2023-07-25T09:44:58.032Z,2.22
2023-07-25T09:47:27.809Z,2.30
2023-07-25T09:49:57.037Z,3.50
2023-07-25T09:52:25.053Z,3.50
2023-07-25T09:54:52.873Z,2.20
2023-07-25T09:57:20.855Z,2.50
2023-07-25T09:59:50.772Z,2.05
2023-07-25T10:02:19.181Z,2.50
2023-07-25T10:04:48.349Z,2.67
2023-07-25T10:07:16.581Z,2.53
2023-07-25T10:09:47.444Z,2.42
2023-07-25T10:12:15.293Z,2.10
2023-07-25T10:14:43.071Z,2.72
2023-07-25T10:17:11.004Z,2.08
2023-07-25T10:19:54.544Z,2.50
2023-07-25T10:22:39.899Z,2.30
2023-07-25T10:25:22.423Z,2.22
2023-07-25T10:28:01.013Z,2.45
2023-07-25T10:30:34.311Z,1.90
2023-07-25T10:33:06.027Z,2.17
2023-07-25T10:35:43.879Z,2.00
2023-07-25T10:38:13.650Z,2.08
2023-07-25T10:40:56.233Z,2.10
2023-07-25T10:43:29.341Z,1.75
2023-07-25T10:46:01.001Z,2.22
2023-07-25T10:48:36.442Z,1.80
2023-07-25T10:51:07.871Z,1.90
2023-07-25T10:53:36.085Z,1.83
2023-07-25T10:56:07.702Z,1.70
2023-07-25T10:59:03.236Z,1.70
2023-07-25T11:01:48.227Z,2.15
2023-07-25T11:04:32.021Z,2.10
2023-07-25T11:07:14.564Z,2.17
2023-07-25T11:09:43.489Z,1.88
2023-07-25T11:12:12.414Z,1.75
2023-07-25T11:14:44.573Z,2.05
2023-07-25T11:17:13.789Z,2.10
2023-07-25T11:19:41.661Z,2.30
2023-07-25T11:22:11.148Z,2.05
2023-07-25T11:24:47.396Z,1.70
2023-07-25T11:29:43.277Z,1.70
2023-07-25T11:32:11.093Z,1.60
2023-07-25T11:34:39.041Z,1.42
2023-07-25T11:37:13.327Z,2.53
2023-07-25T11:39:41.244Z,1.48
2023-07-25T11:42:09.807Z,2.30
2023-07-25T11:44:38.455Z,1.90
2023-07-25T11:47:06.651Z,2.13
2023-07-25T11:49:49.763Z,1.70
2023-07-25T11:52:23.323Z,1.75
2023-07-25T11:54:51.482Z,1.48
2023-07-25T11:57:19.363Z,2.13
2023-07-25T11:59:47.278Z,1.90
2023-07-25T12:02:15.186Z,1.50
2023-07-25T12:04:44.914Z,2.42
2023-07-25T12:07:15.878Z,1.88
2023-07-25T12:09:51.494Z,1.77
2023-07-25T12:12:19.997Z,1.40
2023-07-25T12:15:02.494Z,1.58
2023-07-25T12:17:44.476Z,1.67
2023-07-25T12:20:16.842Z,1.85
2023-07-25T12:22:45.577Z,1.35
2023-07-25T12:25:17.894Z,1.33
2023-07-25T12:27:47.441Z,1.45
2023-07-25T12:30:15.831Z,1.30
2023-07-25T12:32:43.711Z,1.90
2023-07-25T12:35:12.835Z,1.83
2023-07-25T12:37:40.578Z,1.67
2023-07-25T12:40:09.108Z,1.38
2023-07-25T12:42:36.873Z,1.60
2023-07-25T12:45:09.555Z,2.13
2023-07-25T12:47:38.854Z,1.95
2023-07-25T12:50:07.014Z,1.30
2023-07-25T12:52:34.735Z,1.70
2023-07-25T12:55:02.474Z,1.63
2023-07-25T12:57:30.680Z,1.30
2023-07-25T12:59:58.457Z,1.45
2023-07-25T13:02:26.431Z,1.80
2023-07-25T13:04:54.278Z,1.73
2023-07-25T13:07:22.016Z,1.67
2023-07-25T13:09:53.420Z,1.90
2023-07-25T13:12:21.128Z,1.92
2023-07-25T13:14:49.557Z,1.58
2023-07-25T13:17:17.413Z,2.45
2023-07-25T13:19:45.221Z,1.88
2023-07-25T13:22:12.999Z,1.70
2023-07-25T13:24:40.762Z,1.60
2023-07-25T13:27:08.673Z,1.80
2023-07-25T13:29:36.492Z,2.25
2023-07-25T13:32:04.486Z,1.90
2023-07-25T13:34:32.272Z,1.70
2023-07-25T13:37:00.011Z,1.95
2023-07-25T13:39:27.796Z,2.20
2023-07-25T13:41:55.597Z,2.13
2023-07-25T13:44:23.496Z,1.77
2023-07-25T13:46:51.544Z,2.10
2023-07-25T13:49:19.383Z,1.95
2023-07-25T13:51:47.117Z,1.90
2023-07-25T13:54:15.458Z,2.08
2023-07-25T13:56:45.060Z,1.98
2023-07-25T13:59:13.839Z,1.92
2023-07-25T14:01:41.847Z,2.15
2023-07-25T14:04:10.410Z,2.10
2023-07-25T14:06:38.297Z,2.08
2023-07-25T14:09:06.172Z,1.65
2023-07-25T14:11:34.174Z,1.92
2023-07-25T14:14:02.317Z,1.63
2023-07-25T14:16:30.144Z,1.50
2023-07-25T14:18:57.928Z,1.65
2023-07-25T14:21:25.800Z,2.13
2023-07-25T14:23:53.539Z,1.90
2023-07-25T14:26:21.469Z,2.00
2023-07-25T14:28:49.281Z,2.35
2023-07-25T14:31:17.062Z,1.63
2023-07-25T14:33:44.989Z,1.92
2023-07-25T14:36:12.841Z,2.03
2023-07-25T14:38:41.491Z,1.63
2023-07-25T14:41:09.435Z,2.20
2023-07-25T14:43:37.262Z,2.03
2023-07-25T14:46:05.019Z,2.10
2023-07-25T14:48:32.883Z,1.90
2023-07-25T14:51:01.008Z,1.95
2023-07-25T14:53:28.954Z,2.30
2023-07-25T14:55:56.794Z,2.08
2023-07-25T14:58:24.551Z,1.90
2023-07-25T15:00:52.447Z,2.00
2023-07-25T15:03:20.533Z,1.80
2023-07-25T15:05:48.426Z,2.30
2023-07-25T15:08:18.407Z,1.90
2023-07-25T15:10:46.507Z,1.73
2023-07-25T15:13:14.234Z,1.50
2023-07-25T15:15:42.014Z,1.50
2023-07-25T15:18:09.788Z,1.65
2023-07-25T15:20:38.055Z,1.58
2023-07-25T15:23:05.797Z,1.25
2023-07-25T15:25:33.548Z,1.23
2023-07-25T15:28:01.344Z,1.25
2023-07-25T15:30:29.110Z,1.15
2023-07-25T15:32:56.966Z,1.60
2023-07-25T15:35:27.926Z,1.63
2023-07-25T15:37:58.783Z,1.95
2023-07-25T15:40:26.591Z,1.30
2023-07-25T15:42:54.395Z,1.30
2023-07-25T15:45:22.114Z,1.40
2023-07-25T15:47:49.928Z,1.60
2023-07-25T15:50:19.246Z,1.52
2023-07-25T15:52:47.268Z,1.83
2023-07-25T15:55:15.011Z,1.70
2023-07-25T15:57:42.751Z,1.48
2023-07-25T16:00:12.192Z,1.48
2023-07-25T16:02:39.989Z,1.98
2023-07-25T16:05:08.145Z,2.08
2023-07-25T16:07:36.112Z,2.38
2023-07-25T16:10:06.348Z,1.80
2023-07-25T16:12:34.920Z,2.30
2023-07-25T16:15:04.297Z,1.80
2023-07-25T16:17:32.565Z,1.80
2023-07-25T16:20:04.345Z,1.98
2023-07-25T16:22:32.687Z,1.77
2023-07-25T16:25:00.537Z,1.48
2023-07-25T16:27:28.308Z,2.13
2023-07-25T16:29:56.258Z,2.42
2023-07-25T16:32:26.174Z,1.70
2023-07-25T16:34:53.998Z,2.08
2023-07-25T16:37:21.757Z,1.65
2023-07-25T16:39:49.506Z,2.22
2023-07-25T16:42:17.277Z,1.83
2023-07-25T16:44:45.028Z,1.70
2023-07-25T16:47:12.788Z,2.17
2023-07-25T16:49:40.546Z,2.13
2023-07-25T16:52:08.313Z,2.42
2023-07-25T16:54:36.066Z,2.17
2023-07-25T16:57:04.001Z,1.70
2023-07-25T16:59:31.755Z,2.80
2023-07-25T17:02:01.010Z,1.85
2023-07-25T17:04:28.969Z,2.00
2023-07-25T17:06:56.832Z,2.17
2023-07-25T17:09:24.650Z,2.30
2023-07-25T17:11:52.456Z,2.08
2023-07-25T17:14:20.213Z,2.10
2023-07-25T17:16:47.953Z,1.85
2023-07-25T17:19:15.726Z,2.03
2023-07-25T17:21:43.692Z,1.88
2023-07-25T17:24:11.605Z,2.15
2023-07-25T17:26:39.373Z,2.13
2023-07-25T17:29:07.249Z,2.85
2023-07-25T17:31:35.423Z,2.10
2023-07-25T17:34:04.674Z,2.13
2023-07-25T17:36:32.512Z,2.05
2023-07-25T17:39:00.310Z,2.72
2023-07-25T17:41:30.152Z,2.53
2023-07-25T17:43:58.366Z,2.15
2023-07-25T17:46:26.082Z,1.45
2023-07-25T17:48:54.559Z,1.83
2023-07-25T17:51:22.588Z,2.10
2023-07-25T17:53:50.430Z,1.60
2023-07-25T17:56:18.347Z,2.03
2023-07-25T17:58:46.156Z,1.70
2023-07-25T18:01:14.874Z,1.80
2023-07-25T18:03:43.214Z,2.17
2023-07-25T18:06:11.087Z,1.67
2023-07-25T18:08:39.393Z,1.95
2023-07-25T18:11:07.222Z,1.95
2023-07-25T18:13:35.013Z,2.30
2023-07-25T18:16:02.908Z,2.00
2023-07-25T18:18:30.771Z,1.92
2023-07-25T18:20:58.511Z,1.80
2023-07-25T18:23:26.324Z,2.20
2023-07-25T18:25:58.624Z,2.00
2023-07-25T18:28:26.868Z,1.98
2023-07-25T18:30:54.835Z,2.40
2023-07-25T18:33:22.630Z,2.50
2023-07-25T18:35:50.396Z,1.83
2023-07-25T18:38:18.127Z,2.35
2023-07-25T18:40:46.212Z,2.40
2023-07-25T18:43:22.494Z,1.90
2023-07-25T18:48:18.044Z,2.10
2023-07-25T18:50:45.855Z,2.00
2023-07-25T18:53:13.620Z,2.28
2023-07-25T18:55:41.861Z,2.60
2023-07-25T18:58:09.617Z,2.38
2023-07-25T19:00:37.841Z,2.10
2023-07-25T19:03:06.047Z,2.40
2023-07-25T19:05:33.928Z,2.50
2023-07-25T19:08:01.898Z,2.65
2023-07-25T19:10:29.768Z,2.38
2023-07-25T19:12:57.634Z,2.17
2023-07-25T19:15:25.327Z,2.33
2023-07-25T19:17:53.124Z,2.42
2023-07-25T19:20:20.959Z,2.50
2023-07-25T19:22:48.730Z,2.60
2023-07-25T19:25:16.532Z,2.83
2023-07-25T19:27:46.549Z,3.15
2023-07-25T19:30:14.326Z,2.28
2023-07-25T19:32:42.076Z,2.55
2023-07-25T19:35:10.494Z,2.25
2023-07-25T19:37:38.441Z,1.80
2023-07-25T19:40:07.667Z,2.42
2023-07-25T19:42:36.242Z,2.53
2023-07-25T19:45:05.251Z,2.60
2023-07-25T19:47:33.075Z,2.30
2023-07-25T19:50:00.881Z,2.35
2023-07-25T19:52:28.668Z,2.40
2023-07-25T19:54:56.398Z,2.50
2023-07-25T19:57:24.192Z,2.53
2023-07-25T19:59:51.934Z,2.92
2023-07-25T20:02:19.683Z,2.30
2023-07-25T20:04:47.649Z,2.45
2023-07-25T20:07:15.478Z,2.20
2023-07-25T20:09:43.231Z,2.60
2023-07-25T20:12:11.112Z,2.40
2023-07-25T20:14:38.856Z,2.80
2023-07-25T20:17:06.845Z,2.30
2023-07-25T20:19:34.619Z,2.83
2023-07-25T20:22:02.391Z,2.75
2023-07-25T20:24:30.264Z,2.40
2023-07-25T20:26:58.289Z,3.22
2023-07-25T20:29:28.043Z,2.55
2023-07-25T20:31:58.993Z,2.80
2023-07-25T20:34:26.752Z,2.38
2023-07-25T20:36:55.480Z,3.20
2023-07-25T20:39:23.349Z,3.00
2023-07-25T20:41:51.807Z,3.00
2023-07-25T20:44:19.569Z,2.92
2023-07-25T20:46:47.350Z,3.80
2023-07-25T20:49:15.118Z,3.85
2023-07-25T20:51:42.938Z,2.70
2023-07-25T20:54:11.001Z,2.60
2023-07-25T20:56:38.797Z,2.88
2023-07-25T20:59:06.599Z,2.97
2023-07-25T21:01:34.480Z,3.83
2023-07-25T21:04:02.286Z,3.60
2023-07-25T21:06:30.518Z,3.00
2023-07-25T21:09:01.008Z,2.95
2023-07-25T21:11:29.824Z,3.17
2023-07-25T21:13:57.987Z,3.10
2023-07-25T21:16:26.156Z,2.90
2023-07-25T21:18:54.022Z,2.88
2023-07-25T21:21:21.840Z,2.90
2023-07-25T21:23:49.933Z,3.53
2023-07-25T21:26:17.852Z,2.85
2023-07-25T21:28:45.606Z,2.85
2023-07-25T21:31:13.430Z,2.35
2023-07-25T21:33:41.512Z,2.42
2023-07-25T21:36:11.986Z,2.28
2023-07-25T21:38:41.294Z,2.08
2023-07-25T21:41:14.679Z,2.40
2023-07-25T21:43:43.358Z,2.33
2023-07-25T21:46:11.398Z,2.67
2023-07-25T21:48:39.290Z,2.03
2023-07-25T21:51:07.806Z,2.30
2023-07-25T21:53:35.579Z,2.50
2023-07-25T21:56:03.473Z,2.72
2023-07-25T21:58:31.249Z,2.58
2023-07-25T22:00:59.851Z,2.38
2023-07-25T22:03:31.616Z,2.90
2023-07-25T22:06:01.492Z,2.95
2023-07-25T22:08:29.280Z,2.83
2023-07-25T22:10:57.250Z,2.50
2023-07-25T22:13:25.463Z,2.53
2023-07-25T22:15:53.789Z,2.38
2023-07-25T22:18:21.849Z,2.35
2023-07-25T22:20:52.806Z,2.42
2023-07-25T22:23:21.988Z,2.50
2023-07-25T22:25:50.002Z,2.40
2023-07-25T22:28:17.739Z,2.60
2023-07-25T22:30:45.515Z,2.25
2023-07-25T22:33:13.238Z,2.60
2023-07-25T22:35:40.988Z,2.80
2023-07-25T22:38:08.698Z,2.50
2023-07-25T22:40:36.547Z,2.17
2023-07-25T22:43:04.506Z,2.40
2023-07-25T22:45:32.257Z,2.47
2023-07-25T22:48:00.142Z,2.38
2023-07-25T22:50:27.931Z,2.50
2023-07-25T22:52:55.666Z,2.50
2023-07-25T22:55:23.562Z,2.28
2023-07-25T22:57:51.318Z,2.45
2023-07-25T23:00:19.076Z,2.65
2023-07-25T23:02:47.105Z,2.53
2023-07-25T23:05:15.044Z,2.50
2023-07-25T23:07:42.838Z,2.20
2023-07-25T23:10:10.721Z,2.58
2023-07-25T23:12:38.466Z,2.40
2023-07-25T23:15:06.659Z,2.63
2023-07-25T23:17:34.598Z,1.95
2023-07-25T23:20:02.583Z,2.10
2023-07-25T23:22:30.313Z,2.65
2023-07-25T23:24:58.936Z,3.25
2023-07-25T23:27:27.135Z,3.65
2023-07-25T23:29:54.899Z,3.00
2023-07-25T23:32:22.729Z,3.00
2023-07-25T23:34:51.760Z,2.70
2023-07-25T23:37:19.566Z,2.55
2023-07-25T23:39:47.637Z,2.25
2023-07-25T23:42:16.095Z,2.60
2023-07-25T23:44:43.981Z,2.33
2023-07-25T23:47:15.284Z,2.05
2023-07-25T23:49:43.107Z,2.45
2023-07-25T23:52:10.868Z,2.78
2023-07-25T23:54:38.613Z,2.58
2023-07-25T23:57:06.808Z,2.80
2023-07-25T23:59:35.806Z,2.33
